Aeroporto :
LOGIN :

Iscrizione | Disclaimer

   EN    FR    IT 

 










Sommario :    VFR   VFR Marginale   IFR   IFR Intensivo   IFR Molto Intensivo
Visibilità : 
Base nubi : 
>= 8 km
>= 3000ft
5 / 8 km
1000 / 3000 ft
1500m / 5 km
500 / 1000 ft
800 / 1500m
200 / 500 ft
< 800m
< 200 ft
Simboli :   Temporali  Nebbia  Neve Forte  Precipitazioni Forti  Vento > 20 kt
SIGMETs :   Varie  Temporali  Ghiacco  Turbolenza  Onda orograficha  Ceneri Vulcaniche






- Altitudine del aeroporto : 1363 ft


ETIC - Grafenwohr Army Air Field

ULTIMO METAR :
  • 191744Z AUTO 31003KT 9999 -DZ FEW090 04/04 A3001 RMK AO2 DZB1657E1659RAB1659E09DZB09E25RAB25E29DZB44 SLP181 $

METARs OBSOLETI :
  • 191729Z AUTO 00000KT 9999 CLR 04/04 A3001 RMK AO2 DZB1657E1659RAB1659E09DZB09E25RAB25E29 SLP183 $
  • 191657Z AUTO 30003KT 9999 -DZ FEW060 SCT080 04/03 A3000 RMK AO2 DZB57 SLP180 $
  • 191655Z AUTO 30003KT 9999 FEW060 BKN080 04/03 A3000 RMK AO2 DZB43E55 SLP180 $
  • 191556Z AUTO 00000KT 9999 FEW060 04/03 A3000 RMK AO2 SLP180 T00410032 $
  • 191456Z AUTO 00000KT 9999 BKN090 05/03 A2999 RMK AO2 RAB37E46DZB46E47 SLP173 P//// 60000 T00470027 53001 $

TAF TAF ETIC
Valido dal 19 a 14 ore il 20 a 20 ore UTC


191400Z 1914/2020 VRB06KT 9999 SCT050 QNH2997INS
BECMG 1922/1923 VRB06KT 8000 BR SCT020 BKN030 620304 QNH3000INS
BECMG 2008/2009 VRB06KT 9999 NSW OVC030 620304 QNH2994INS
BECMG 2015/2016 16006KT 9999 BKN015 620304 QNH2991INS TX07/1915Z TN00/2003Z



MetMap, La meteo Aeronautica in un colpo d'occhio ! - Copyright ORBIFLY Dicembre 2007 - Disclaimer

ORBIFLY MET'MAP TEAM :

Programmazione e sviluppo : Alexandra Zaïnal
Concezione e sviluppo : Baudouin d'Aumeries
Co-Programmazione e sviluppo : Marc-Olivier Méhu
Supporto tecnico e logistico : Manuel Goepfert
Aiuto per la traduzione : Arnaldo La Scala

Contatto : metmap@orbifly.com




FONTI E CREDITI :

   NOAA